Time;durP1;ratioP1;P1;durP2;ratioP2;P2;SDS_P1;SDS_P2;PMS_P1;PMS_P2;Temp;Humidity;BMP_temperature;BMP_pressure;BME280_temperature;BME280_humidity;BME280_pressure;Samples;Min_cycle;Max_cycle;Signal;HPM_P1;HPM_P2
2021/05/20 00:01:09;;;;;;;12.93;10.70;;;10.50;98.30;;;;;;5055944;23;20445;-82
2021/05/20 00:03:11;;;;;;;14.50;11.03;;;10.50;98.30;;;;;;5055135;23;20491;-82
2021/05/20 00:05:16;;;;;;;12.30;10.63;;;10.60;98.30;;;;;;5047523;23;20435;-83
2021/05/20 00:07:19;;;;;;;11.67;10.10;;;10.60;98.30;;;;;;5056538;23;20417;-83
2021/05/20 00:09:22;;;;;;;12.23;10.40;;;10.60;98.30;;;;;;5057056;23;20443;-82
2021/05/20 00:11:24;;;;;;;12.37;11.10;;;10.60;98.30;;;;;;5055153;23;20455;-82
2021/05/20 00:13:26;;;;;;;13.57;9.67;;;10.60;98.30;;;;;;5046945;23;20407;-82
2021/05/20 00:15:29;;;;;;;13.87;9.77;;;10.60;98.30;;;;;;5046346;23;20441;-82
2021/05/20 00:17:32;;;;;;;12.47;10.27;;;10.60;98.30;;;;;;5046592;23;20839;-82
2021/05/20 00:19:34;;;;;;;13.30;11.30;;;10.60;98.30;;;;;;5055701;23;20433;-83
2021/05/20 00:21:37;;;;;;;11.40;9.47;;;10.60;98.30;;;;;;5046825;23;20457;-82
2021/05/20 00:23:40;;;;;;;11.33;9.90;;;10.50;98.30;;;;;;5055859;23;20433;-83
2021/05/20 00:25:42;;;;;;;10.57;9.43;;;10.40;98.30;;;;;;5056207;23;20504;-83
2021/05/20 00:27:44;;;;;;;11.87;9.57;;;10.30;98.30;;;;;;5051295;23;20898;-83
2021/05/20 00:29:49;;;;;;;10.70;9.33;;;10.30;98.30;;;;;;5051298;23;20472;-83
2021/05/20 00:31:51;;;;;;;11.70;9.70;;;10.30;98.30;;;;;;5060698;23;20453;-83
2021/05/20 00:33:53;;;;;;;13.10;10.40;;;10.20;98.30;;;;;;5050906;23;20437;-83
2021/05/20 00:35:56;;;;;;;10.87;9.37;;;10.20;98.30;;;;;;5057403;23;20439;-83
2021/05/20 00:37:59;;;;;;;11.83;9.73;;;10.20;98.30;;;;;;5054640;23;20433;-83
2021/05/20 00:40:01;;;;;;;10.40;9.30;;;10.20;98.30;;;;;;5044464;23;20441;-82
2021/05/20 00:42:07;;;;;;;9.93;8.90;;;10.30;98.30;;;;;;5055272;23;20445;-82
2021/05/20 00:44:09;;;;;;;10.07;8.47;;;10.30;98.30;;;;;;5057266;23;20487;-82
2021/05/20 00:46:13;;;;;;;11.03;9.33;;;10.30;98.30;;;;;;5042896;23;20977;-82
2021/05/20 00:48:16;;;;;;;10.83;9.00;;;10.40;98.30;;;;;;5042543;23;20433;-82
2021/05/20 00:50:18;;;;;;;10.17;9.17;;;10.40;98.30;;;;;;5042660;23;20433;-82
2021/05/20 00:52:21;;;;;;;10.40;7.90;;;10.30;98.30;;;;;;5042394;23;20456;-82
2021/05/20 00:54:25;;;;;;;10.57;8.50;;;10.30;98.30;;;;;;5041149;23;20433;-82
2021/05/20 00:56:29;;;;;;;8.80;7.90;;;10.20;98.30;;;;;;5041392;23;20838;-82
2021/05/20 00:58:32;;;;;;;9.43;8.43;;;10.10;98.30;;;;;;5049985;23;20447;-82
2021/05/20 01:00:34;;;;;;;8.97;7.93;;;10.10;98.30;;;;;;5050097;23;20455;-82
2021/05/20 01:02:38;;;;;;;9.90;8.20;;;10.10;98.30;;;;;;5042868;23;20523;-82
2021/05/20 01:04:40;;;;;;;12.23;8.83;;;10.10;98.30;;;;;;5051978;23;20479;-83
2021/05/20 01:06:42;;;;;;;10.60;8.30;;;10.10;98.30;;;;;;5040994;23;20440;-81
2021/05/20 01:08:45;;;;;;;8.90;8.00;;;10.20;98.30;;;;;;5039520;23;20433;-81
2021/05/20 01:10:48;;;;;;;9.20;8.30;;;10.20;98.30;;;;;;5041462;23;20487;-82
2021/05/20 01:12:51;;;;;;;11.00;8.53;;;10.00;98.30;;;;;;5041967;23;20462;-82
2021/05/20 01:14:53;;;;;;;8.60;7.70;;;10.00;98.30;;;;;;5049788;23;20483;-83
2021/05/20 01:16:55;;;;;;;12.50;9.37;;;10.00;98.30;;;;;;5043752;23;20414;-82
2021/05/20 01:18:58;;;;;;;8.87;7.57;;;10.10;98.30;;;;;;5049311;23;20479;-82
2021/05/20 01:21:01;;;;;;;9.33;8.33;;;10.10;98.30;;;;;;5052682;23;20448;-82
2021/05/20 01:23:06;;;;;;;9.10;7.63;;;10.10;98.30;;;;;;5041675;23;20436;-82
2021/05/20 01:25:10;;;;;;;8.53;7.63;;;10.20;98.30;;;;;;5045270;23;20417;-82
2021/05/20 01:27:14;;;;;;;8.57;7.67;;;10.20;98.30;;;;;;5052089;23;20463;-82
2021/05/20 01:29:16;;;;;;;9.70;8.60;;;10.20;98.30;;;;;;5049595;23;20520;-82
2021/05/20 01:31:19;;;;;;;9.83;8.00;;;10.20;98.30;;;;;;5049725;23;20467;-82
2021/05/20 01:33:21;;;;;;;7.80;7.00;;;10.20;98.30;;;;;;5056961;23;20732;-83
2021/05/20 01:35:24;;;;;;;9.03;7.93;;;10.20;98.30;;;;;;5047467;23;20462;-82
2021/05/20 01:37:27;;;;;;;18.67;14.53;;;10.20;98.30;;;;;;5048279;23;21000;-82
2021/05/20 01:39:30;;;;;;;228.40;123.13;;;10.20;98.30;;;;;;5048145;23;20437;-82
2021/05/20 01:41:33;;;;;;;105.70;67.53;;;10.30;98.30;;;;;;5048503;23;20449;-82
2021/05/20 01:43:38;;;;;;;55.53;33.17;;;10.30;98.30;;;;;;5048475;23;20436;-82
2021/05/20 01:45:40;;;;;;;17.37;12.30;;;10.40;98.30;;;;;;5055911;23;20813;-83
2021/05/20 01:47:43;;;;;;;10.83;8.20;;;10.50;98.30;;;;;;5057673;23;20520;-83
2021/05/20 01:49:50;;;;;;;12.23;8.77;;;10.50;98.30;;;;;;5048550;23;20443;-83
2021/05/20 01:51:52;;;;;;;10.03;8.40;;;10.40;98.30;;;;;;5044508;23;20439;-82
2021/05/20 01:53:56;;;;;;;8.90;8.00;;;10.50;98.30;;;;;;5044814;23;20753;-82
2021/05/20 01:55:59;;;;;;;7.83;7.03;;;10.50;98.30;;;;;;5053404;23;20460;-82
2021/05/20 01:58:01;;;;;;;8.37;7.23;;;10.60;98.30;;;;;;5054920;23;20776;-83
2021/05/20 02:00:06;;;;;;;8.80;6.80;;;10.60;98.30;;;;;;5047280;23;20918;-82
2021/05/20 02:02:09;;;;;;;8.37;6.97;;;10.70;98.30;;;;;;5045294;23;20774;-82
2021/05/20 02:04:11;;;;;;;8.30;7.50;;;10.70;98.30;;;;;;5053806;23;20435;-82
2021/05/20 02:06:14;;;;;;;7.20;6.50;;;10.70;98.30;;;;;;5053905;23;20429;-82
2021/05/20 02:08:16;;;;;;;7.10;6.40;;;10.60;98.30;;;;;;5045982;23;20444;-82
2021/05/20 02:10:19;;;;;;;6.57;5.93;;;10.50;98.30;;;;;;5046288;23;20444;-82
2021/05/20 02:12:21;;;;;;;9.70;6.93;;;10.40;98.30;;;;;;5046406;23;20828;-82
2021/05/20 02:14:24;;;;;;;7.40;6.60;;;10.30;98.30;;;;;;5054975;23;20429;-83
2021/05/20 02:16:27;;;;;;;8.37;6.93;;;10.30;98.30;;;;;;5054855;23;20934;-84
2021/05/20 02:18:29;;;;;;;8.53;7.07;;;10.20;98.30;;;;;;5044911;23;20425;-83
2021/05/20 02:20:32;;;;;;;7.80;6.90;;;10.10;98.30;;;;;;5052880;23;20449;-83
2021/05/20 02:22:34;;;;;;;8.63;7.27;;;10.00;98.30;;;;;;5054988;23;20400;-82
2021/05/20 02:24:37;;;;;;;10.53;7.20;;;9.90;98.30;;;;;;5048969;23;20496;-83
2021/05/20 02:26:40;;;;;;;7.73;7.03;;;9.90;98.30;;;;;;5059498;23;20436;-82
2021/05/20 02:28:42;;;;;;;8.27;7.47;;;9.90;98.30;;;;;;5051234;23;20443;-83
2021/05/20 02:30:45;;;;;;;8.67;7.77;;;9.90;98.30;;;;;;5051254;23;20431;-82
2021/05/20 02:32:47;;;;;;;9.93;8.93;;;9.80;98.30;;;;;;5050745;23;20434;-82
2021/05/20 02:34:49;;;;;;;11.80;8.43;;;9.80;98.30;;;;;;5058092;23;20406;-82
2021/05/20 02:36:52;;;;;;;9.37;8.30;;;9.70;98.30;;;;;;5056112;23;20490;-82
2021/05/20 02:38:54;;;;;;;9.27;8.20;;;9.70;98.30;;;;;;5055840;23;20428;-84
2021/05/20 02:40:56;;;;;;;11.00;8.50;;;9.60;98.30;;;;;;5048543;23;20441;-81
2021/05/20 02:43:00;;;;;;;10.40;7.67;;;9.50;98.30;;;;;;5054184;23;20409;-82
2021/05/20 02:45:04;;;;;;;8.80;7.90;;;9.50;98.30;;;;;;5043798;23;20407;-82
2021/05/20 02:47:06;;;;;;;9.10;7.70;;;9.50;98.30;;;;;;5042811;23;20487;-82
2021/05/20 02:49:09;;;;;;;10.03;8.03;;;9.40;98.30;;;;;;5045470;23;20422;-82
2021/05/20 02:51:11;;;;;;;8.50;7.47;;;9.40;98.30;;;;;;5047745;23;20520;-82
2021/05/20 02:53:13;;;;;;;9.27;7.80;;;9.50;98.30;;;;;;5048122;23;21026;-82
2021/05/20 02:55:19;;;;;;;11.60;8.80;;;9.50;98.30;;;;;;5054375;23;20432;-82
2021/05/20 02:57:22;;;;;;;9.10;8.20;;;9.50;98.30;;;;;;5054273;23;20452;-82
2021/05/20 02:59:25;;;;;;;9.63;7.70;;;9.60;98.30;;;;;;5045999;23;20430;-82
2021/05/20 03:01:28;;;;;;;8.80;7.90;;;9.60;98.30;;;;;;5045976;23;20909;-82
2021/05/20 03:03:30;;;;;;;11.57;9.23;;;9.60;98.30;;;;;;5044236;23;20433;-82
2021/05/20 03:05:32;;;;;;;8.60;7.70;;;9.60;98.30;;;;;;5045371;23;20719;-82
2021/05/20 03:07:36;;;;;;;11.23;8.00;;;9.60;98.30;;;;;;5054708;23;20524;-82
2021/05/20 03:09:40;;;;;;;9.87;8.87;;;9.60;98.30;;;;;;5055025;23;20425;-82
2021/05/20 03:11:42;;;;;;;10.77;8.03;;;9.50;98.30;;;;;;5053703;23;21024;-83
2021/05/20 03:13:44;;;;;;;9.23;8.27;;;9.50;98.30;;;;;;5044619;23;20419;-82
2021/05/20 03:15:47;;;;;;;8.60;7.80;;;9.50;98.30;;;;;;5051876;23;21185;-82
2021/05/20 03:17:50;;;;;;;9.03;7.97;;;9.50;98.30;;;;;;5043934;23;20437;-82
2021/05/20 03:19:52;;;;;;;9.50;7.93;;;9.70;98.30;;;;;;5052411;23;20391;-83
2021/05/20 03:21:54;;;;;;;8.80;7.90;;;9.70;98.30;;;;;;5055411;23;20479;-82
2021/05/20 03:23:57;;;;;;;9.20;8.03;;;9.60;98.30;;;;;;5054316;23;20439;-82
2021/05/20 03:25:59;;;;;;;9.57;8.10;;;9.70;98.30;;;;;;5045365;23;20440;-82
2021/05/20 03:28:02;;;;;;;11.17;8.50;;;9.70;98.30;;;;;;5045752;23;20433;-82
2021/05/20 03:30:06;;;;;;;9.00;8.10;;;9.70;98.30;;;;;;5045566;23;20443;-82
2021/05/20 03:32:09;;;;;;;8.80;7.90;;;9.70;98.30;;;;;;5043892;23;20428;-82
2021/05/20 03:34:11;;;;;;;9.83;8.60;;;9.80;98.30;;;;;;5054526;23;20530;-82
2021/05/20 03:36:14;;;;;;;11.30;8.53;;;9.80;98.30;;;;;;5046181;23;20443;-82
2021/05/20 03:38:16;;;;;;;10.23;8.00;;;9.70;98.30;;;;;;5045219;23;20789;-82
2021/05/20 03:40:19;;;;;;;9.80;8.33;;;9.70;98.30;;;;;;5051215;23;20499;-82
2021/05/20 03:42:22;;;;;;;10.87;8.70;;;9.60;98.30;;;;;;5040667;23;20432;-82
2021/05/20 03:44:25;;;;;;;9.77;8.60;;;9.60;98.30;;;;;;5045796;23;20404;-82
2021/05/20 03:46:28;;;;;;;10.30;8.77;;;9.60;98.30;;;;;;5038193;23;20418;-82
2021/05/20 03:48:31;;;;;;;9.67;8.70;;;9.50;98.30;;;;;;5037928;23;20460;-81
2021/05/20 03:50:34;;;;;;;12.20;9.07;;;9.60;98.30;;;;;;5038895;23;20838;-82
2021/05/20 03:52:36;;;;;;;9.57;8.40;;;9.60;98.30;;;;;;5040101;23;20449;-81
2021/05/20 03:54:42;;;;;;;10.63;9.23;;;9.60;98.30;;;;;;5038531;23;20437;-82
2021/05/20 03:56:44;;;;;;;10.67;8.57;;;9.50;98.30;;;;;;5038181;23;20419;-82
2021/05/20 03:58:47;;;;;;;10.30;8.77;;;9.50;98.30;;;;;;5038636;23;20891;-81
2021/05/20 04:00:49;;;;;;;9.87;8.87;;;9.60;98.30;;;;;;5038831;23;20488;-82
2021/05/20 04:02:51;;;;;;;9.10;7.70;;;9.60;98.30;;;;;;5038370;23;20491;-82
2021/05/20 04:04:58;;;;;;;18.60;9.70;;;9.50;98.30;;;;;;5037071;23;20422;-81
2021/05/20 04:07:01;;;;;;;11.40;9.17;;;9.50;98.30;;;;;;5037439;23;20736;-82
2021/05/20 04:09:04;;;;;;;11.23;8.70;;;9.50;98.30;;;;;;5037913;23;20443;-82
2021/05/20 04:11:06;;;;;;;9.93;8.93;;;9.50;98.30;;;;;;5046533;23;20424;-81
2021/05/20 04:13:08;;;;;;;11.40;9.20;;;9.50;98.30;;;;;;5037605;23;21048;-81
2021/05/20 04:15:12;;;;;;;9.57;8.07;;;9.50;98.30;;;;;;5036908;23;20411;-82
2021/05/20 04:17:14;;;;;;;13.57;10.63;;;9.50;98.30;;;;;;5045752;23;20430;-81
2021/05/20 04:19:17;;;;;;;13.90;8.43;;;9.50;98.30;;;;;;5037353;23;20412;-81
2021/05/20 04:21:20;;;;;;;9.93;8.70;;;9.40;98.30;;;;;;5037939;23;20457;-81
2021/05/20 04:23:23;;;;;;;10.50;9.47;;;9.50;98.30;;;;;;5038264;23;20805;-82
2021/05/20 04:25:26;;;;;;;12.50;9.40;;;9.50;98.30;;;;;;5037074;23;20440;-82
2021/05/20 04:27:28;;;;;;;13.63;9.93;;;9.50;98.30;;;;;;5038122;23;20411;-82
2021/05/20 04:29:31;;;;;;;12.33;9.90;;;9.50;98.30;;;;;;5046014;23;20429;-82
2021/05/20 04:31:34;;;;;;;10.50;9.40;;;9.60;98.30;;;;;;5038461;23;20456;-82
2021/05/20 04:33:36;;;;;;;9.90;8.70;;;9.60;98.30;;;;;;5037829;23;20449;-82
2021/05/20 04:35:39;;;;;;;11.77;9.47;;;9.70;98.30;;;;;;5045659;23;20695;-82
2021/05/20 04:37:42;;;;;;;12.10;9.80;;;9.70;98.30;;;;;;5037896;23;20460;-82
2021/05/20 04:39:44;;;;;;;10.80;9.63;;;9.80;98.30;;;;;;5038047;23;20712;-82
2021/05/20 04:41:46;;;;;;;14.33;9.97;;;9.90;98.30;;;;;;5037825;23;20467;-82
2021/05/20 04:43:49;;;;;;;10.97;9.80;;;9.90;98.30;;;;;;5038419;23;20440;-82
2021/05/20 04:45:51;;;;;;;13.10;10.73;;;9.90;98.30;;;;;;5037501;23;20411;-82
2021/05/20 04:47:53;;;;;;;17.67;10.13;;;10.00;98.30;;;;;;5038577;23;20435;-82
2021/05/20 04:49:56;;;;;;;12.10;10.00;;;10.00;98.30;;;;;;5038671;23;20442;-82
2021/05/20 04:51:58;;;;;;;12.40;9.57;;;10.10;98.30;;;;;;5039306;23;20782;-82
2021/05/20 04:54:01;;;;;;;12.50;10.87;;;10.10;98.30;;;;;;5046476;23;20422;-83
2021/05/20 04:56:05;;;;;;;12.63;10.47;;;10.20;98.30;;;;;;5037741;23;21124;-82
2021/05/20 04:58:07;;;;;;;11.43;10.13;;;10.10;98.30;;;;;;5039614;23;20510;-82
2021/05/20 05:00:12;;;;;;;15.23;9.33;;;10.10;98.30;;;;;;5039511;23;20495;-82
2021/05/20 05:02:14;;;;;;;11.40;9.50;;;10.10;98.30;;;;;;5047365;23;20425;-82
2021/05/20 05:04:16;;;;;;;12.30;9.83;;;10.00;98.30;;;;;;5038488;23;20433;-82
2021/05/20 05:06:18;;;;;;;11.50;10.30;;;10.00;98.30;;;;;;5045956;23;20429;-82
2021/05/20 05:08:21;;;;;;;10.73;9.63;;;10.00;98.30;;;;;;5039699;23;20719;-82
2021/05/20 05:10:24;;;;;;;14.47;10.20;;;10.00;98.30;;;;;;5048230;23;20425;-82
2021/05/20 05:12:26;;;;;;;11.20;9.33;;;10.00;98.30;;;;;;5042871;23;20922;-82
2021/05/20 05:14:29;;;;;;;13.97;10.33;;;10.00;98.30;;;;;;5052519;23;20506;-82
2021/05/20 05:16:31;;;;;;;14.67;10.50;;;10.00;98.30;;;;;;5043962;23;20498;-82
2021/05/20 05:18:33;;;;;;;12.30;10.50;;;10.10;98.30;;;;;;5046350;23;20951;-82
2021/05/20 05:20:36;;;;;;;11.67;10.20;;;10.10;98.30;;;;;;5037968;23;20445;-81
2021/05/20 05:22:38;;;;;;;12.93;10.30;;;10.10;98.30;;;;;;5039810;23;20411;-82
2021/05/20 05:24:41;;;;;;;13.77;10.90;;;10.10;98.30;;;;;;5037816;23;20406;-82
2021/05/20 05:26:45;;;;;;;13.23;10.53;;;10.00;98.30;;;;;;5040591;23;20970;-82
2021/05/20 05:28:47;;;;;;;14.73;11.80;;;10.00;98.30;;;;;;5049307;23;20407;-82
2021/05/20 05:30:49;;;;;;;14.60;11.77;;;10.00;98.30;;;;;;5049041;23;20445;-82
2021/05/20 05:32:52;;;;;;;14.97;11.37;;;10.10;98.30;;;;;;5040451;23;20449;-82
2021/05/20 05:34:54;;;;;;;14.10;11.10;;;10.10;98.30;;;;;;5039774;23;20412;-82
2021/05/20 05:36:57;;;;;;;12.10;10.67;;;10.20;98.30;;;;;;5048147;23;20443;-83
2021/05/20 05:38:59;;;;;;;15.90;11.80;;;10.10;98.30;;;;;;5049030;23;20433;-82
2021/05/20 05:41:01;;;;;;;11.87;10.50;;;10.30;98.30;;;;;;5048621;23;20419;-82
2021/05/20 05:43:05;;;;;;;13.67;11.90;;;10.30;98.30;;;;;;5040881;23;20469;-82
2021/05/20 05:45:08;;;;;;;16.13;11.80;;;10.50;98.30;;;;;;5047903;23;20429;-82
2021/05/20 05:47:11;;;;;;;13.07;11.53;;;10.50;98.30;;;;;;5040911;23;20831;-82
2021/05/20 05:49:15;;;;;;;14.27;12.03;;;10.60;98.30;;;;;;5040082;23;20443;-82
2021/05/20 05:51:20;;;;;;;13.90;12.03;;;10.70;98.30;;;;;;5041314;23;21120;-82
2021/05/20 05:53:22;;;;;;;14.37;10.90;;;10.70;98.30;;;;;;5049229;23;20503;-82
2021/05/20 05:55:25;;;;;;;15.87;12.53;;;10.80;98.30;;;;;;5040099;23;20754;-82
2021/05/20 05:57:27;;;;;;;17.30;12.60;;;10.90;98.30;;;;;;5048904;23;20817;-82
2021/05/20 05:59:31;;;;;;;16.73;11.27;;;10.90;98.30;;;;;;5041489;23;20438;-82
2021/05/20 06:01:33;;;;;;;13.00;10.50;;;10.90;98.30;;;;;;5041575;23;21045;-82
2021/05/20 06:03:36;;;;;;;12.77;11.43;;;10.90;98.30;;;;;;5041118;23;20491;-82
2021/05/20 06:05:38;;;;;;;15.77;11.80;;;10.80;98.30;;;;;;5041572;23;20441;-82
2021/05/20 06:07:43;;;;;;;12.10;10.43;;;10.80;98.30;;;;;;5048138;23;20431;-82
2021/05/20 06:09:45;;;;;;;15.60;12.40;;;10.90;98.30;;;;;;5041496;23;20503;-81
2021/05/20 06:11:48;;;;;;;16.57;12.23;;;11.10;98.30;;;;;;5045073;23;20958;-81
2021/05/20 06:13:50;;;;;;;16.83;12.13;;;11.30;98.30;;;;;;5052131;23;20449;-81
2021/05/20 06:15:53;;;;;;;18.17;13.93;;;11.30;98.30;;;;;;5045730;23;20443;-82
2021/05/20 06:17:55;;;;;;;17.70;14.80;;;11.40;98.30;;;;;;5044812;23;20479;-82
2021/05/20 06:19:58;;;;;;;27.43;19.00;;;11.40;98.30;;;;;;5045639;23;20444;-82
2021/05/20 06:22:00;;;;;;;15.57;12.10;;;11.60;98.30;;;;;;5053786;23;20797;-81
2021/05/20 06:24:03;;;;;;;13.87;11.80;;;11.80;98.30;;;;;;5044481;23;20429;-82
2021/05/20 06:26:06;;;;;;;14.77;12.17;;;11.80;98.30;;;;;;5045636;23;20498;-83
2021/05/20 06:28:08;;;;;;;13.10;11.70;;;11.90;98.30;;;;;;5050907;23;20482;-82
2021/05/20 06:30:12;;;;;;;14.07;11.77;;;12.00;98.30;;;;;;5051534;23;20806;-82
2021/05/20 06:32:15;;;;;;;14.10;12.40;;;11.90;98.30;;;;;;5042430;23;20865;-82
2021/05/20 06:34:17;;;;;;;18.00;13.27;;;11.80;98.30;;;;;;5041735;23;20453;-82
2021/05/20 06:36:20;;;;;;;14.33;12.77;;;11.80;98.30;;;;;;5049728;23;20794;-82
2021/05/20 06:38:23;;;;;;;14.27;12.40;;;11.90;98.30;;;;;;5039906;23;20433;-82
2021/05/20 06:40:26;;;;;;;18.20;14.47;;;11.80;98.30;;;;;;5038347;23;20482;-82
2021/05/20 06:42:28;;;;;;;14.57;12.20;;;11.80;98.30;;;;;;5039709;23;20503;-82
2021/05/20 06:44:30;;;;;;;14.70;12.37;;;11.90;98.30;;;;;;5050354;23;20431;-82
2021/05/20 06:46:34;;;;;;;18.23;13.40;;;11.80;98.30;;;;;;5041080;23;20490;-83
2021/05/20 06:48:37;;;;;;;22.07;15.13;;;11.80;98.30;;;;;;5040301;23;20429;-82
2021/05/20 06:50:40;;;;;;;13.17;11.83;;;11.90;98.30;;;;;;5047879;23;20821;-82
2021/05/20 06:52:42;;;;;;;23.43;17.13;;;12.10;98.30;;;;;;5049761;23;20437;-82
2021/05/20 06:54:44;;;;;;;12.70;10.90;;;12.10;98.30;;;;;;5042217;23;20456;-82
2021/05/20 06:56:50;;;;;;;61.10;37.17;;;12.10;98.30;;;;;;5049947;23;20932;-83
2021/05/20 07:01:13;;;;;;;14.70;12.67;;;12.00;98.30;;;;;;5044433;23;20460;-83
2021/05/20 07:03:17;;;;;;;13.63;10.90;;;12.20;98.30;;;;;;5043070;23;20872;-82
2021/05/20 07:05:21;;;;;;;14.07;11.27;;;12.40;98.30;;;;;;5042151;23;20506;-82
2021/05/20 07:07:24;;;;;;;29.03;18.93;;;12.60;98.30;;;;;;5042503;23;20443;-82
2021/05/20 07:09:28;;;;;;;26.93;20.23;;;12.70;98.30;;;;;;5043564;23;20451;-83
2021/05/20 07:11:31;;;;;;;35.60;24.80;;;12.80;98.30;;;;;;5045739;23;20453;-82
2021/05/20 07:13:33;;;;;;;18.93;12.63;;;12.90;98.30;;;;;;5041654;23;20547;-81
2021/05/20 07:15:36;;;;;;;12.47;9.53;;;12.90;98.30;;;;;;5041355;23;20457;-82
2021/05/20 07:17:38;;;;;;;12.10;9.17;;;12.80;98.30;;;;;;5041029;23;20440;-82
2021/05/20 07:19:41;;;;;;;16.17;10.40;;;12.70;98.30;;;;;;5049834;23;20754;-82
2021/05/20 07:21:47;;;;;;;15.17;11.30;;;12.50;98.30;;;;;;5042519;23;21067;-82
2021/05/20 07:23:50;;;;;;;9.90;8.90;;;12.30;98.30;;;;;;5042946;23;20425;-82
2021/05/20 07:25:52;;;;;;;11.27;9.63;;;12.20;98.30;;;;;;5041222;23;20801;-82
2021/05/20 07:27:55;;;;;;;11.07;9.87;;;12.10;98.30;;;;;;5041737;23;20512;-82
2021/05/20 07:29:57;;;;;;;11.70;10.50;;;12.10;98.30;;;;;;5049779;23;20740;-82
2021/05/20 07:31:59;;;;;;;12.40;10.40;;;12.20;98.30;;;;;;5041893;23;20515;-82
2021/05/20 07:34:02;;;;;;;10.10;9.10;;;12.30;98.30;;;;;;5041141;23;20460;-82
2021/05/20 07:36:05;;;;;;;10.70;9.63;;;12.40;98.30;;;;;;5041809;23;20437;-82
2021/05/20 07:38:08;;;;;;;9.90;8.90;;;12.70;98.30;;;;;;5042025;23;20455;-82
2021/05/20 07:40:12;;;;;;;11.13;9.13;;;12.80;98.30;;;;;;5042662;23;20429;-82
2021/05/20 07:42:14;;;;;;;10.70;8.07;;;13.00;98.30;;;;;;5044233;23;20548;-82
2021/05/20 07:44:17;;;;;;;12.57;10.07;;;13.10;98.30;;;;;;5043066;23;20906;-81
2021/05/20 07:46:20;;;;;;;9.50;8.10;;;13.30;98.30;;;;;;5044226;23;20448;-83
2021/05/20 07:48:22;;;;;;;12.30;8.07;;;13.60;98.30;;;;;;5045005;23;20441;-83
2021/05/20 07:50:25;;;;;;;8.43;7.50;;;13.90;98.30;;;;;;5053530;23;20459;-83
2021/05/20 07:52:27;;;;;;;8.97;7.80;;;14.00;98.30;;;;;;5045451;23;20451;-82
2021/05/20 07:54:31;;;;;;;7.80;7.00;;;13.90;98.30;;;;;;5044829;23;20914;-82
2021/05/20 07:56:34;;;;;;;8.50;6.97;;;13.80;98.30;;;;;;5044522;23;20528;-83
2021/05/20 07:58:37;;;;;;;8.73;7.73;;;13.90;98.30;;;;;;5046391;23;20499;-83
2021/05/20 08:00:39;;;;;;;7.93;7.13;;;14.10;98.30;;;;;;5046776;23;20767;-82
2021/05/20 08:02:48;;;;;;;19.50;12.50;;;14.00;98.30;;;;;;5044914;23;20444;-82
2021/05/20 08:04:53;;;;;;;22.73;15.10;;;13.90;98.30;;;;;;5044789;23;20421;-83
2021/05/20 08:07:01;;;;;;;42.63;29.30;;;13.60;98.30;;;;;;5052310;23;20504;-82
2021/05/20 08:09:14;;;;;;;8.77;7.87;;;13.60;98.30;;;;;;5054189;23;20420;-83
2021/05/20 08:11:18;;;;;;;8.13;7.33;;;13.60;98.30;;;;;;5046105;23;20449;-83
2021/05/20 08:13:20;;;;;;;10.87;7.10;;;13.60;98.30;;;;;;5052920;23;20436;-83
2021/05/20 08:15:23;;;;;;;9.87;7.80;;;13.90;98.30;;;;;;5044147;23;20460;-83
2021/05/20 08:17:25;;;;;;;8.67;7.50;;;14.10;98.30;;;;;;5044870;23;20736;-83
2021/05/20 08:19:29;;;;;;;9.17;7.70;;;14.10;98.30;;;;;;5046201;23;20441;-83
2021/05/20 08:21:31;;;;;;;8.03;6.00;;;14.10;98.30;;;;;;5055486;23;20449;-83
2021/05/20 08:23:34;;;;;;;7.87;7.17;;;14.10;98.30;;;;;;5046633;23;20421;-83
2021/05/20 08:25:37;;;;;;;25.17;17.87;;;13.80;98.30;;;;;;5045415;23;20520;-83
2021/05/20 08:27:40;;;;;;;14.83;12.30;;;13.50;98.30;;;;;;5046331;23;20437;-83
2021/05/20 08:29:42;;;;;;;7.10;6.00;;;13.50;98.30;;;;;;5046876;23;20478;-83
2021/05/20 08:31:45;;;;;;;7.77;6.97;;;13.70;98.30;;;;;;5055595;23;21049;-83
2021/05/20 08:33:47;;;;;;;6.83;6.23;;;14.00;98.30;;;;;;5046463;23;20465;-83
2021/05/20 08:35:50;;;;;;;8.27;6.60;;;14.20;98.30;;;;;;5054835;23;20545;-83
2021/05/20 08:37:52;;;;;;;7.77;6.50;;;14.20;98.30;;;;;;5047559;23;20436;-83
2021/05/20 08:39:55;;;;;;;7.83;5.87;;;14.40;98.30;;;;;;5047699;23;20434;-83
2021/05/20 08:41:58;;;;;;;6.07;5.47;;;14.50;98.30;;;;;;5046894;23;20453;-83
2021/05/20 08:44:08;;;;;;;4.63;4.13;;;14.40;98.30;;;;;;5047045;23;20496;-83
2021/05/20 08:46:10;;;;;;;5.93;5.03;;;14.50;98.30;;;;;;5046304;23;20421;-84
2021/05/20 08:48:13;;;;;;;5.20;4.70;;;14.70;98.30;;;;;;5047491;23;20501;-83
2021/05/20 08:50:16;;;;;;;5.60;4.43;;;14.70;98.30;;;;;;5048024;23;20950;-83
2021/05/20 08:52:19;;;;;;;6.80;6.10;;;14.40;97.00;;;;;;5047672;23;20441;-83
2021/05/20 08:54:22;;;;;;;5.70;5.10;;;14.20;98.30;;;;;;5046556;23;20449;-83
2021/05/20 08:56:25;;;;;;;6.10;5.50;;;14.00;98.30;;;;;;5054607;23;20432;-83
2021/05/20 08:58:28;;;;;;;6.10;5.40;;;14.00;98.30;;;;;;5047656;23;20468;-84
2021/05/20 09:00:32;;;;;;;6.40;5.27;;;14.30;98.30;;;;;;5046944;23;20475;-83
2021/05/20 09:02:35;;;;;;;7.03;4.77;;;14.60;98.30;;;;;;5047737;23;20930;-83
2021/05/20 09:04:37;;;;;;;5.90;5.40;;;14.80;98.30;;;;;;5054455;23;20432;-83
2021/05/20 09:06:44;;;;;;;6.10;5.50;;;14.90;98.30;;;;;;5047206;23;20499;-83
2021/05/20 09:08:47;;;;;;;5.87;5.33;;;14.90;98.30;;;;;;5048583;23;20444;-83
2021/05/20 09:10:50;;;;;;;5.90;5.30;;;14.80;98.30;;;;;;5047766;23;20465;-83
2021/05/20 09:12:54;;;;;;;5.60;5.10;;;14.70;98.30;;;;;;5047498;23;21019;-83
2021/05/20 09:14:56;;;;;;;7.20;5.30;;;14.40;98.30;;;;;;5046975;23;20512;-83
2021/05/20 09:17:10;;;;;;;8.20;6.60;;;14.10;98.30;;;;;;5046622;23;20433;-83
2021/05/20 09:19:21;;;;;;;8.57;6.43;;;13.90;98.30;;;;;;5048089;23;20900;-83
2021/05/20 09:21:24;;;;;;;7.37;6.23;;;13.80;98.30;;;;;;5056116;23;20937;-83
2021/05/20 09:23:29;;;;;;;7.07;5.73;;;13.70;98.30;;;;;;5054532;23;20487;-82
2021/05/20 09:25:33;;;;;;;8.77;6.47;;;13.80;98.30;;;;;;5046155;23;20420;-82
2021/05/20 09:27:38;;;;;;;6.43;5.50;;;13.70;98.30;;;;;;5047546;23;20459;-83
2021/05/20 09:29:42;;;;;;;5.83;5.23;;;13.90;98.30;;;;;;5047796;23;21151;-83
2021/05/20 09:31:47;;;;;;;7.30;6.57;;;14.20;98.30;;;;;;5055505;23;20449;-83
2021/05/20 09:33:54;;;;;;;6.13;5.50;;;14.60;98.30;;;;;;5046872;23;20838;-83
2021/05/20 09:35:57;;;;;;;6.90;6.20;;;15.00;98.30;;;;;;5046740;23;20449;-83
2021/05/20 09:38:02;;;;;;;8.10;5.80;;;15.40;98.00;;;;;;5049896;23;20439;-83
2021/05/20 09:40:05;;;;;;;6.30;5.70;;;15.30;97.40;;;;;;5062089;23;20445;-83
2021/05/20 10:41:13;;;;;;;7.00;6.30;;;15.60;98.30;;;;;;5037714;23;20453;-82
2021/05/20 10:43:17;;;;;;;7.20;6.60;;;15.70;98.30;;;;;;5029492;23;20521;-82
2021/05/20 10:45:21;;;;;;;7.97;7.17;;;15.80;98.30;;;;;;5029518;23;20430;-82
2021/05/20 10:47:24;;;;;;;10.97;8.27;;;16.10;98.30;;;;;;5020306;23;20439;-82
2021/05/20 10:49:59;;;;;;;7.63;6.70;;;16.40;98.30;;;;;;5006069;23;20435;-82
2021/05/20 10:52:02;;;;;;;8.17;6.80;;;16.60;98.30;;;;;;5005772;23;20498;-83
2021/05/20 10:54:09;;;;;;;8.30;7.50;;;16.70;98.20;;;;;;5003825;23;20454;-82
2021/05/20 10:56:51;;;;;;;7.43;6.20;;;16.80;97.80;;;;;;5000287;23;20510;-82
2021/05/20 10:58:54;;;;;;;6.43;5.80;;;17.10;98.20;;;;;;5000192;23;20422;-82
2021/05/20 11:00:56;;;;;;;5.70;5.20;;;17.80;96.60;;;;;;4999520;23;20439;-82
2021/05/20 11:02:59;;;;;;;5.37;4.87;;;17.90;88.60;;;;;;4999550;23;20494;-82
2021/05/20 11:05:03;;;;;;;5.00;4.60;;;17.80;88.70;;;;;;4999337;23;20427;-82
2021/05/20 11:07:06;;;;;;;7.30;5.43;;;18.00;88.90;;;;;;4999131;23;20461;-82
2021/05/20 11:09:10;;;;;;;6.47;5.87;;;17.60;88.80;;;;;;4999428;23;20813;-82
2021/05/20 11:11:21;;;;;;;8.23;5.77;;;17.30;88.90;;;;;;4999816;23;20437;-82
2021/05/20 11:13:36;;;;;;;5.83;5.00;;;16.90;90.60;;;;;;4999476;23;20416;-81
2021/05/20 11:15:41;;;;;;;4.30;3.90;;;16.30;90.50;;;;;;4999591;23;20685;-81
2021/05/20 11:17:43;;;;;;;4.63;4.10;;;15.80;92.20;;;;;;5000253;23;20451;-82
2021/05/20 11:19:45;;;;;;;4.00;3.60;;;15.30;96.10;;;;;;5013694;23;20925;-83
2021/05/20 11:22:09;;;;;;;3.60;3.30;;;14.90;98.30;;;;;;5004903;23;20463;-83
2021/05/20 11:24:17;;;;;;;4.07;3.77;;;14.60;98.30;;;;;;5006582;23;20479;-83
2021/05/20 11:26:23;;;;;;;3.50;3.20;;;14.40;98.30;;;;;;5006667;23;20746;-84
2021/05/20 11:28:25;;;;;;;4.10;3.10;;;14.30;98.30;;;;;;4999085;23;20426;-83
2021/05/20 11:30:28;;;;;;;3.53;3.23;;;14.80;98.30;;;;;;5007075;23;20792;-84
2021/05/20 11:32:33;;;;;;;3.50;2.93;;;15.20;98.10;;;;;;4999235;23;20427;-84
2021/05/20 11:34:49;;;;;;;3.30;3.00;;;15.70;95.10;;;;;;4998286;23;20524;-83
2021/05/20 11:36:53;;;;;;;5.17;3.70;;;15.90;94.50;;;;;;5013955;23;20447;-84
2021/05/20 11:38:59;;;;;;;6.80;3.77;;;16.70;94.50;;;;;;5014770;23;20462;-83